createdAt,value
2018-07-08T06:20:05.255Z,23.1
2018-07-08T06:21:07.714Z,21.1
2018-07-08T06:22:10.949Z,21.3
2018-07-08T06:23:13.922Z,21.3
2018-07-08T06:24:17.185Z,21.2
2018-07-08T06:25:20.157Z,21.3
2018-07-08T06:26:23.207Z,21.3
2018-07-08T06:27:26.451Z,21.5
2018-07-08T06:28:29.432Z,21.3
2018-07-08T06:29:32.139Z,21.4
2018-07-08T06:30:35.398Z,21.6
2018-07-08T06:31:38.415Z,21.5
2018-07-08T06:32:41.800Z,21.5
2018-07-08T06:33:44.579Z,21.5
2018-07-08T06:34:47.834Z,21.6
2018-07-08T06:35:50.814Z,21.5
2018-07-08T06:36:53.793Z,21.6
2018-07-08T06:37:56.777Z,21.5
2018-07-08T06:38:59.761Z,21.3
2018-07-08T06:40:02.479Z,21.2
2018-07-08T06:41:05.732Z,21.4
2018-07-08T06:42:09.033Z,21.2
2018-07-08T06:43:11.769Z,21.2
2018-07-08T06:44:15.019Z,21
2018-07-08T06:45:18.265Z,21.1
2018-07-08T06:46:21.539Z,21.1
2018-07-08T06:47:24.964Z,21
2018-07-08T06:48:27.691Z,21
2018-07-08T06:49:30.668Z,20.9
2018-07-08T06:50:33.660Z,20.9
2018-07-08T06:51:36.371Z,20.8
2018-07-08T06:52:39.626Z,20.6
2018-07-08T06:53:42.598Z,19.8
2018-07-08T06:54:45.565Z,20.5
2018-07-08T06:55:48.832Z,20.5
2018-07-08T06:56:51.821Z,20.5
2018-07-08T06:57:55.098Z,20.6
2018-07-08T06:58:58.487Z,20.3
2018-07-08T07:00:01.747Z,20.3
2018-07-08T07:01:04.713Z,20.4
2018-07-08T07:02:07.976Z,20.4
2018-07-08T07:03:10.951Z,20.4
2018-07-08T07:04:14.205Z,20.4
2018-07-08T07:05:17.456Z,20.1
2018-07-08T07:06:19.883Z,20
2018-07-08T07:07:23.142Z,20
2018-07-08T07:08:26.130Z,20.2
2018-07-08T07:09:28.569Z,20.1
2018-07-08T07:10:31.553Z,19.9
2018-07-08T07:11:34.835Z,20.1
2018-07-08T07:12:38.116Z,19.9
2018-07-08T07:13:40.839Z,20.1
2018-07-08T07:14:44.093Z,19.9
2018-07-08T07:15:47.359Z,19.9
2018-07-08T07:16:50.346Z,20
2018-07-08T07:17:53.604Z,19.9
2018-07-08T07:18:56.872Z,19.9
2018-07-08T07:20:00.126Z,19.9
2018-07-08T07:21:03.373Z,19.7
2018-07-08T07:22:06.623Z,19.9
2018-07-08T07:23:09.882Z,19.6
2018-07-08T07:24:13.139Z,19.8
2018-07-08T07:25:16.112Z,19.6
2018-07-08T07:26:19.374Z,19.8
2018-07-08T07:27:22.350Z,19.7
2018-07-08T07:28:25.702Z,19.4
2018-07-08T07:29:28.681Z,19.5
2018-07-08T07:30:31.647Z,19.4
2018-07-08T07:31:34.901Z,19.5
2018-07-08T07:32:38.159Z,19.4
2018-07-08T07:33:41.415Z,19.3
2018-07-08T07:34:44.387Z,19.3
2018-07-08T07:35:47.381Z,19.5
2018-07-08T07:36:50.361Z,19.4
2018-07-08T07:37:53.622Z,19.5
2018-07-08T07:38:56.330Z,19.3
2018-07-08T07:39:59.300Z,19.3
2018-07-08T07:41:02.006Z,19.2
2018-07-08T07:42:05.274Z,19.2
2018-07-08T07:43:08.561Z,19.4
2018-07-08T07:44:11.536Z,19.4
2018-07-08T07:45:14.841Z,19.3
2018-07-08T07:46:18.145Z,19.4
2018-07-08T07:47:20.823Z,19.1
2018-07-08T07:48:24.224Z,19.1
2018-07-08T07:49:27.216Z,19
2018-07-08T07:50:29.967Z,19.1
2018-07-08T07:51:33.221Z,19.1
2018-07-08T07:52:36.213Z,19.1
2018-07-08T07:53:39.488Z,19
2018-07-08T07:54:42.746Z,19
2018-07-08T07:55:45.735Z,19
2018-07-08T07:56:48.713Z,19.1
2018-07-08T07:57:51.970Z,19
2018-07-08T07:58:55.264Z,19.1
2018-07-08T07:59:58.106Z,19.1
2018-07-08T08:01:01.356Z,18.8
2018-07-08T08:02:04.033Z,18.7
2018-07-08T08:03:07.317Z,18.8
2018-07-08T08:04:10.596Z,18.8
2018-07-08T08:05:13.867Z,18.8
2018-07-08T08:06:16.856Z,18.8
2018-07-08T08:07:19.581Z,18.8
2018-07-08T08:08:22.614Z,18.7
2018-07-08T08:09:26.226Z,18.8
2018-07-08T08:10:29.493Z,18.7
2018-07-08T08:11:32.491Z,18.8
2018-07-08T08:12:35.741Z,18.7
2018-07-08T08:13:38.998Z,18.9
2018-07-08T08:14:41.986Z,18.9
2018-07-08T08:15:44.977Z,18.8
2018-07-08T08:16:48.233Z,18.8
2018-07-08T08:17:51.494Z,18.6
2018-07-08T08:18:54.738Z,18.7
2018-07-08T08:19:58.005Z,18.7
2018-07-08T08:21:00.724Z,18.7
2018-07-08T08:22:04.208Z,18.7
2018-07-08T08:23:06.924Z,18.7
2018-07-08T08:24:10.189Z,18.7
2018-07-08T08:25:13.196Z,18.7
2018-07-08T08:26:16.473Z,18.6
2018-07-08T08:27:19.479Z,18.7
2018-07-08T08:28:22.453Z,18.6
2018-07-08T08:29:25.146Z,18.7
2018-07-08T08:30:28.399Z,18.7
2018-07-08T08:31:31.094Z,18.5
2018-07-08T08:32:34.346Z,18.5
2018-07-08T08:33:37.600Z,18.7
2018-07-08T08:34:40.856Z,18.7
2018-07-08T08:35:44.127Z,18.6
2018-07-08T08:36:47.100Z,18.6
2018-07-08T08:37:49.824Z,18.4
2018-07-08T08:38:52.801Z,18.6
2018-07-08T08:39:55.788Z,18.4
2018-07-08T08:40:59.056Z,18.5
2018-07-08T08:42:02.047Z,17.5
2018-07-08T08:43:04.876Z,17.6
2018-07-08T08:44:07.568Z,17.7
2018-07-08T08:45:10.275Z,18.5
2018-07-08T08:46:13.331Z,18.3
2018-07-08T08:47:16.578Z,18.4
2018-07-08T08:48:19.837Z,18.6
2018-07-08T08:49:23.108Z,18.3
2018-07-08T08:50:26.381Z,18.6
2018-07-08T08:51:29.068Z,17.4
2018-07-08T08:52:31.797Z,17.4
2018-07-08T08:53:35.666Z,18.3
2018-07-08T08:54:38.914Z,18.3
2018-07-08T08:55:42.176Z,18.4
2018-07-08T08:56:44.890Z,18.4
2018-07-08T08:57:48.163Z,18.4
2018-07-08T08:58:51.165Z,18.2
2018-07-08T08:59:54.639Z,18.3
2018-07-08T09:00:57.592Z,18.4
2018-07-08T09:02:00.851Z,18.4
2018-07-08T09:03:04.124Z,18.3
2018-07-08T09:04:07.432Z,18.3
2018-07-08T09:05:10.842Z,18.3
2018-07-08T09:06:14.105Z,18.4
2018-07-08T09:07:17.375Z,18.4
2018-07-08T09:08:20.380Z,18.4
2018-07-08T09:09:23.632Z,18.2
2018-07-08T09:10:26.609Z,18.3
2018-07-08T09:11:29.596Z,18.2
2018-07-08T09:12:32.861Z,18.3
2018-07-08T09:13:36.228Z,18.1
2018-07-08T09:14:39.188Z,18.3
2018-07-08T09:15:42.450Z,18.2
2018-07-08T09:16:45.802Z,18.2
2018-07-08T09:17:48.789Z,18.3
2018-07-08T09:18:51.481Z,18.2
2018-07-08T09:19:54.462Z,18.3
2018-07-08T09:20:57.428Z,18.1
2018-07-08T09:22:00.686Z,18.3
2018-07-08T09:23:03.664Z,18.3
2018-07-08T09:24:06.964Z,18.2
2018-07-08T09:25:10.089Z,18.1
2018-07-08T09:26:13.343Z,18.2
2018-07-08T09:27:16.604Z,18.3
2018-07-08T09:28:19.573Z,18.2
2018-07-08T09:29:22.681Z,18.2
2018-07-08T09:30:26.278Z,18.1
2018-07-08T09:31:29.255Z,18
2018-07-08T09:32:32.508Z,18.1
2018-07-08T09:33:36.267Z,18
2018-07-08T09:34:39.536Z,18
2018-07-08T09:35:42.807Z,18.1
2018-07-08T09:36:46.056Z,18
2018-07-08T09:37:49.320Z,18
2018-07-08T09:38:52.298Z,18
2018-07-08T09:39:56.651Z,17.9
2018-07-08T09:40:59.928Z,17.9
2018-07-08T09:42:02.947Z,18
2018-07-08T09:43:06.226Z,18.1
2018-07-08T09:44:09.488Z,18
2018-07-08T09:45:12.746Z,18
2018-07-08T09:46:15.701Z,18
2018-07-08T09:47:19.000Z,18
2018-07-08T09:48:22.262Z,18
2018-07-08T09:49:25.516Z,17.9
2018-07-08T09:50:28.767Z,17.9
2018-07-08T09:51:32.039Z,18
2018-07-08T09:52:35.067Z,18
2018-07-08T09:53:37.637Z,17.9
2018-07-08T09:54:40.609Z,18
2018-07-08T09:55:43.737Z,17.9
2018-07-08T09:56:46.990Z,18
2018-07-08T09:57:49.699Z,18
2018-07-08T09:58:52.517Z,17.9
2018-07-08T09:59:55.495Z,17.9
2018-07-08T10:00:58.775Z,17
2018-07-08T10:02:01.607Z,17.8
2018-07-08T10:03:04.858Z,17.9
2018-07-08T10:04:07.549Z,17.7
2018-07-08T10:05:10.816Z,18
2018-07-08T10:06:13.791Z,18
2018-07-08T10:07:16.775Z,18
2018-07-08T10:08:19.769Z,17.8
2018-07-08T10:09:22.750Z,17.8
2018-07-08T10:10:26.015Z,17.9
2018-07-08T10:11:28.996Z,17.8
2018-07-08T10:12:31.838Z,17
2018-07-08T10:13:35.096Z,17.8
2018-07-08T10:14:38.183Z,17.9
2018-07-08T10:15:41.448Z,17.9
2018-07-08T10:16:44.710Z,17.8
2018-07-08T10:17:48.089Z,17.9
2018-07-08T10:18:52.627Z,17.9
2018-07-08T10:19:56.036Z,17
2018-07-08T10:20:59.271Z,17.7
2018-07-08T10:22:02.251Z,16.9
2018-07-08T10:23:05.231Z,17.7
2018-07-08T10:24:08.485Z,17.9
2018-07-08T10:25:11.465Z,17.9
2018-07-08T10:26:14.887Z,17.9
2018-07-08T10:27:18.134Z,17.9
2018-07-08T10:28:21.142Z,17.9
2018-07-08T10:29:24.502Z,17.9
2018-07-08T10:30:27.891Z,17.7
2018-07-08T10:31:31.482Z,17.8
2018-07-08T10:32:34.472Z,17.9
2018-07-08T10:33:37.452Z,17.7
2018-07-08T10:34:40.436Z,17.8
2018-07-08T10:35:43.432Z,17.7
2018-07-08T10:36:46.681Z,17.6
2018-07-08T10:37:49.621Z,17.7
2018-07-08T10:38:52.874Z,17.7
2018-07-08T10:39:56.134Z,17.7
2018-07-08T10:40:59.602Z,17.7
2018-07-08T10:42:02.584Z,17.7
2018-07-08T10:43:05.289Z,17.7
2018-07-08T10:44:08.544Z,17.7
2018-07-08T10:45:11.568Z,16.8
2018-07-08T10:46:14.825Z,17.7
2018-07-08T10:47:17.812Z,17.7
2018-07-08T10:48:21.085Z,17.7
2018-07-08T10:49:24.059Z,17.7
2018-07-08T10:50:27.035Z,17.7
2018-07-08T10:51:30.293Z,17.6
2018-07-08T10:52:33.286Z,17.7
2018-07-08T10:53:36.270Z,17.6
2018-07-08T10:54:39.296Z,17.5
2018-07-08T10:55:42.546Z,17.5
2018-07-08T10:56:45.516Z,17.7
2018-07-08T10:57:48.782Z,17.5
2018-07-08T10:58:51.476Z,17.6
2018-07-08T10:59:54.452Z,17.7
2018-07-08T11:00:57.718Z,16.6
2018-07-08T11:02:00.140Z,17.5
2018-07-08T11:03:03.120Z,17.5
2018-07-08T11:04:06.093Z,17.7
2018-07-08T11:05:08.826Z,17.6
2018-07-08T11:06:12.080Z,17.5
2018-07-08T11:07:14.754Z,17.4
2018-07-08T11:08:17.439Z,17.6
2018-07-08T11:09:20.697Z,17.6
2018-07-08T11:10:23.941Z,17.6
2018-07-08T11:11:27.215Z,17.6
2018-07-08T11:12:30.192Z,17.6
2018-07-08T11:13:33.193Z,17.4
2018-07-08T11:14:36.187Z,17.4
2018-07-08T11:15:38.876Z,17.4
2018-07-08T11:16:41.850Z,17.4
2018-07-08T11:17:45.114Z,17.6
2018-07-08T11:18:48.378Z,17.5
2018-07-08T11:19:51.645Z,17.4
2018-07-08T11:20:54.971Z,17.4
2018-07-08T11:21:58.234Z,17.5
2018-07-08T11:23:01.507Z,17.3
2018-07-08T11:24:04.766Z,17.4
2018-07-08T11:25:08.025Z,17.5
2018-07-08T11:26:11.284Z,17.4
2018-07-08T11:27:14.270Z,17.3
2018-07-08T11:28:17.241Z,17.4
2018-07-08T11:29:20.507Z,17.4
2018-07-08T11:30:24.016Z,17.3
2018-07-08T11:31:26.738Z,17.3
2018-07-08T11:32:29.688Z,17.3
2018-07-08T11:33:32.952Z,17.3
2018-07-08T11:34:36.210Z,17.3
2018-07-08T11:35:39.171Z,17.3
2018-07-08T11:36:42.145Z,17.3
2018-07-08T11:37:44.865Z,17.4
2018-07-08T11:38:47.585Z,17.3
2018-07-08T11:39:50.849Z,17.4
2018-07-08T11:40:54.112Z,17.4
2018-07-08T11:41:57.242Z,17.3
2018-07-08T11:43:00.547Z,17.3
2018-07-08T11:44:04.360Z,17.4
2018-07-08T11:45:07.619Z,17.3
2018-07-08T11:46:10.484Z,17.2
2018-07-08T11:47:13.973Z,17.3
2018-07-08T11:48:17.223Z,17.3
2018-07-08T11:49:20.201Z,17.3
2018-07-08T11:50:22.365Z,17.3
2018-07-08T11:51:25.460Z,17.3
2018-07-08T11:52:28.712Z,17.3
2018-07-08T11:53:31.957Z,17.3
2018-07-08T11:54:35.222Z,17.3
2018-07-08T11:55:38.201Z,17.3
2018-07-08T11:56:41.464Z,17.3
2018-07-08T11:57:44.720Z,17.3
2018-07-08T11:58:47.733Z,17.4
2018-07-08T11:59:50.999Z,17.3
2018-07-08T12:00:54.248Z,17.3
2018-07-08T12:01:57.559Z,17.4
2018-07-08T12:03:00.412Z,17.2
2018-07-08T12:04:03.376Z,17.2
2018-07-08T12:05:06.465Z,17.4
2018-07-08T12:06:09.716Z,17.2
2018-07-08T12:07:12.805Z,17.3
2018-07-08T12:08:15.482Z,17.2
2018-07-08T12:09:18.476Z,17.3
2018-07-08T12:10:21.730Z,17.2
2018-07-08T12:11:24.696Z,17.3
2018-07-08T12:12:27.945Z,17.4
2018-07-08T12:13:31.196Z,17.4
2018-07-08T12:14:34.572Z,17.3
2018-07-08T12:15:37.764Z,17.3
2018-07-08T12:16:41.017Z,17.3
2018-07-08T12:17:44.269Z,17.3
2018-07-08T12:18:47.530Z,17.3
2018-07-08T12:19:50.780Z,17.2
2018-07-08T12:20:53.766Z,17.2
2018-07-08T12:21:56.780Z,17.3
2018-07-08T12:23:00.043Z,17.3
2018-07-08T12:24:03.303Z,17.2
2018-07-08T12:25:06.600Z,17.2
2018-07-08T12:26:09.864Z,17.1
2018-07-08T12:27:12.576Z,17.1
2018-07-08T12:28:15.894Z,17.2
2018-07-08T12:29:19.153Z,17.1
2018-07-08T12:30:21.866Z,17.3
2018-07-08T12:31:24.681Z,17.1
2018-07-08T12:32:27.929Z,17.2
2018-07-08T12:33:31.207Z,17.1
2018-07-08T12:34:34.475Z,17.3
2018-07-08T12:35:37.747Z,17.1
2018-07-08T12:36:40.495Z,17.2
2018-07-08T12:37:43.903Z,17.2
2018-07-08T12:38:47.319Z,17.2
2018-07-08T12:39:50.308Z,17.1
2018-07-08T12:40:53.302Z,17.1
2018-07-08T12:41:56.289Z,17
2018-07-08T12:42:59.556Z,17.2
2018-07-08T12:44:02.919Z,17.2
2018-07-08T12:45:05.971Z,17.2
2018-07-08T12:46:08.953Z,17
2018-07-08T12:47:12.209Z,17.2
2018-07-08T12:48:15.466Z,17.3
2018-07-08T12:49:18.438Z,17.2
2018-07-08T12:50:21.696Z,17.1
2018-07-08T12:51:25.012Z,17
2018-07-08T12:52:28.312Z,17.2
2018-07-08T12:53:31.023Z,17.3
2018-07-08T12:54:34.113Z,17.2
2018-07-08T12:55:37.130Z,17.2
2018-07-08T12:56:40.214Z,17.2
2018-07-08T12:57:43.584Z,17.2
2018-07-08T12:58:46.645Z,17
2018-07-08T12:59:50.641Z,17.1
2018-07-08T13:00:53.368Z,17.2
2018-07-08T13:01:56.325Z,16.3
2018-07-08T13:02:59.315Z,17.1
2018-07-08T13:04:02.285Z,17.1
2018-07-08T13:05:05.541Z,17.1
2018-07-08T13:06:08.812Z,17.2
2018-07-08T13:07:12.089Z,17.1
2018-07-08T13:08:15.068Z,17
2018-07-08T13:09:18.046Z,17
2018-07-08T13:10:21.456Z,17.2
2018-07-08T13:11:24.160Z,17
2018-07-08T13:12:27.415Z,17.2
2018-07-08T13:13:30.690Z,17.2
2018-07-08T13:14:33.754Z,16.1
2018-07-08T13:15:36.726Z,17.2
2018-07-08T13:16:40.015Z,16.1
2018-07-08T13:17:43.587Z,17.2
2018-07-08T13:18:46.855Z,17.1
2018-07-08T13:19:49.615Z,17
2018-07-08T13:20:53.030Z,17.2
2018-07-08T13:21:56.298Z,17.2
2018-07-08T13:22:59.036Z,17.2
2018-07-08T13:29:17.592Z,17
2018-07-08T13:30:20.854Z,17.2
2018-07-08T13:31:24.112Z,17.1
2018-07-08T13:32:27.448Z,17
2018-07-08T13:33:31.466Z,17
2018-07-08T13:34:34.463Z,17.1
2018-07-08T13:35:37.730Z,17.2
2018-07-08T13:36:40.753Z,16.9
2018-07-08T13:37:44.092Z,17.2
2018-07-08T13:38:47.098Z,17.2
2018-07-08T13:39:50.537Z,16.2
2018-07-08T13:40:53.815Z,17.2
2018-07-08T13:41:57.083Z,17.2
2018-07-08T13:43:00.352Z,17.2
2018-07-08T13:44:03.611Z,16.9
2018-07-08T13:45:06.869Z,17.1
2018-07-08T13:46:10.138Z,17.2
2018-07-08T13:47:13.401Z,17
2018-07-08T13:48:16.723Z,17.2
2018-07-08T13:49:19.716Z,17.1
2018-07-08T13:50:22.679Z,17.1
2018-07-08T13:51:25.939Z,17.1
2018-07-08T13:52:28.649Z,17
2018-07-08T13:53:31.637Z,17
2018-07-08T13:54:34.903Z,17.2
2018-07-08T13:55:38.218Z,17.1
2018-07-08T13:56:41.633Z,17
2018-07-08T13:57:44.893Z,17.1
2018-07-08T13:58:48.144Z,17.2
2018-07-08T13:59:51.126Z,17.2
2018-07-08T14:00:54.120Z,17.1
2018-07-08T14:01:57.207Z,17.1
2018-07-08T14:03:00.519Z,17.1
2018-07-08T14:04:03.791Z,17
2018-07-08T14:05:07.079Z,16.9
2018-07-08T14:06:10.045Z,17
2018-07-08T14:07:13.050Z,17
2018-07-08T14:08:16.026Z,17
2018-07-08T14:09:19.357Z,16.9
2018-07-08T14:10:23.197Z,17
2018-07-08T14:11:26.465Z,17
2018-07-08T14:12:29.417Z,17
2018-07-08T14:13:32.414Z,17
2018-07-08T14:14:35.688Z,17
2018-07-08T14:15:38.582Z,16.9
2018-07-08T14:16:41.539Z,16
2018-07-08T14:17:44.851Z,17
2018-07-08T14:18:47.895Z,17
2018-07-08T14:19:50.597Z,17
2018-07-08T14:20:53.623Z,17
2018-07-08T14:21:57.031Z,16.9
2018-07-08T14:23:00.029Z,17.1
2018-07-08T14:24:03.285Z,16.9
2018-07-08T14:25:06.272Z,17
2018-07-08T14:26:09.530Z,17.1
2018-07-08T14:27:12.508Z,16.9
2018-07-08T14:28:15.491Z,17
2018-07-08T14:29:18.781Z,17
2018-07-08T14:30:22.224Z,17
2018-07-08T14:31:24.916Z,16
2018-07-08T14:32:28.160Z,16.9
2018-07-08T14:33:31.469Z,17
2018-07-08T14:34:34.740Z,16.9
2018-07-08T14:35:38.011Z,16.9
2018-07-08T14:36:41.004Z,16.8
2018-07-08T14:37:44.269Z,16.8
2018-07-08T14:38:47.248Z,16.8
2018-07-08T14:39:50.276Z,16.8
2018-07-08T14:40:53.520Z,16.8
2018-07-08T14:41:56.491Z,16.9
2018-07-08T14:42:59.756Z,16.9
2018-07-08T14:44:03.069Z,16.8
2018-07-08T14:45:06.321Z,16.9
2018-07-08T14:46:09.355Z,16.9
2018-07-08T14:47:12.632Z,16.9
2018-07-08T14:48:15.955Z,17
2018-07-08T14:49:18.990Z,16.8
2018-07-08T14:50:22.246Z,17
2018-07-08T14:51:25.502Z,17
2018-07-08T14:52:28.765Z,17
2018-07-08T14:53:31.797Z,17
2018-07-08T14:54:34.799Z,17
2018-07-08T14:55:38.081Z,17
2018-07-08T14:56:40.801Z,16.9
2018-07-08T14:57:44.108Z,17
2018-07-08T14:58:47.384Z,17
2018-07-08T14:59:50.666Z,17
2018-07-08T15:00:53.656Z,16.9
2018-07-08T15:01:56.633Z,17
2018-07-08T15:02:59.349Z,17
2018-07-08T15:04:02.352Z,16.8
2018-07-08T15:05:05.599Z,16.9
2018-07-08T15:06:08.595Z,16.8
2018-07-08T15:07:11.555Z,17
2018-07-08T15:08:14.802Z,17
2018-07-08T15:09:17.688Z,16.8
2018-07-08T15:10:20.746Z,17
2018-07-08T15:11:24.070Z,16.8
2018-07-08T15:12:27.362Z,16.8
2018-07-08T15:13:30.661Z,17
2018-07-08T15:14:33.394Z,16.9
2018-07-08T15:15:36.457Z,16.8
2018-07-08T15:16:40.082Z,16.9
2018-07-08T15:17:43.461Z,17
2018-07-08T15:18:46.829Z,16.9
2018-07-08T15:19:50.137Z,16.9
2018-07-08T15:20:53.144Z,16.8
2018-07-08T15:21:56.796Z,15.9
2018-07-08T15:23:00.174Z,16.9
2018-07-08T15:24:02.954Z,16.9
2018-07-08T15:25:06.328Z,17
2018-07-08T15:26:09.379Z,15.9
